createdAt,value
2018-05-18T00:00:57.019Z,1011.34
2018-05-18T00:02:06.725Z,1011.29
2018-05-18T00:03:16.505Z,1011.29
2018-05-18T00:04:26.219Z,1011.25
2018-05-18T00:05:36.187Z,1011.28
2018-05-18T00:06:45.906Z,1011.17
2018-05-18T00:07:55.608Z,1011.25
2018-05-18T00:09:05.584Z,1011.29
2018-05-18T00:10:15.554Z,1011.23
2018-05-18T00:11:25.252Z,1011.18
2018-05-18T00:12:35.296Z,1011.22
2018-05-18T00:13:45.273Z,1011.29
2018-05-18T00:14:55.248Z,1011.25
2018-05-18T00:16:05.227Z,1011.31
2018-05-18T00:17:14.949Z,1011.31
2018-05-18T00:18:24.674Z,1011.35
2018-05-18T00:19:34.129Z,1011.32
2018-05-18T00:20:44.098Z,1011.32
2018-05-18T00:21:54.056Z,1011.34
2018-05-18T00:23:04.040Z,1011.38
2018-05-18T00:24:13.766Z,1011.39
2018-05-18T00:25:23.463Z,1011.28
2018-05-18T00:26:33.189Z,1011.34
2018-05-18T00:27:42.907Z,1011.32
2018-05-18T00:28:52.865Z,1011.39
2018-05-18T00:30:02.919Z,1011.39
2018-05-18T00:31:13.005Z,1011.36
2018-05-18T00:32:22.979Z,1011.4
2018-05-18T00:33:32.693Z,1011.41
2018-05-18T00:34:42.688Z,1011.36
2018-05-18T00:35:52.394Z,1011.31
2018-05-18T00:37:02.102Z,1011.32
2018-05-18T00:38:12.076Z,1011.4
2018-05-18T00:39:22.119Z,1011.41
2018-05-18T00:40:31.866Z,1011.34
2018-05-18T00:41:41.828Z,1011.37
2018-05-18T00:42:51.795Z,1011.36
2018-05-18T00:44:01.765Z,1011.48
2018-05-18T00:45:11.736Z,1011.48
2018-05-18T00:46:21.465Z,1011.48
2018-05-18T00:47:31.437Z,1011.44
2018-05-18T00:48:40.884Z,1011.58
2018-05-18T00:49:50.344Z,1011.46
2018-05-18T00:51:00.325Z,1011.44
2018-05-18T00:52:10.297Z,1011.51
2018-05-18T00:53:20.263Z,1011.46
2018-05-18T00:54:30.296Z,1011.48
2018-05-18T00:55:39.998Z,1011.5
2018-05-18T00:56:49.709Z,1011.5
2018-05-18T00:57:59.696Z,1011.48
2018-05-18T00:59:09.405Z,1011.45
2018-05-18T01:00:19.102Z,1011.51
2018-05-18T01:01:29.075Z,1011.43
2018-05-18T01:02:38.772Z,1011.5
2018-05-18T01:03:48.480Z,1011.47
2018-05-18T01:04:58.190Z,1011.44
2018-05-18T01:06:07.898Z,1011.49
2018-05-18T01:07:17.859Z,1011.51
2018-05-18T01:08:27.842Z,1011.47
2018-05-18T01:09:37.810Z,1011.5
2018-05-18T01:10:47.776Z,1011.48
2018-05-18T01:11:57.552Z,1011.52
2018-05-18T01:13:07.543Z,1011.48
2018-05-18T01:14:17.531Z,1011.54
2018-05-18T01:15:27.236Z,1011.52
2018-05-18T01:16:36.939Z,1011.58
2018-05-18T01:17:46.905Z,1011.52
2018-05-18T01:18:56.615Z,1011.56
2018-05-18T01:20:06.583Z,1011.6
2018-05-18T01:21:15.784Z,1011.57
2018-05-18T01:22:25.749Z,1011.49
2018-05-18T01:23:35.729Z,1011.53
2018-05-18T01:24:45.688Z,1011.45
2018-05-18T01:25:55.661Z,1011.5
2018-05-18T01:27:05.373Z,1011.48
2018-05-18T01:28:15.088Z,1011.49
2018-05-18T01:29:24.798Z,1011.5
2018-05-18T01:30:34.771Z,1011.49
2018-05-18T01:31:44.494Z,1011.5
2018-05-18T01:32:54.458Z,1011.5
2018-05-18T01:34:04.177Z,1011.47
2018-05-18T01:35:14.145Z,1011.46
2018-05-18T01:36:24.110Z,1011.46
2018-05-18T01:37:34.095Z,1011.5
2018-05-18T01:38:43.821Z,1011.43
2018-05-18T01:39:53.277Z,1011.53
2018-05-18T01:41:03.247Z,1011.52
2018-05-18T01:42:13.212Z,1011.53
2018-05-18T01:43:22.918Z,1011.54
2018-05-18T01:44:32.914Z,1011.56
2018-05-18T01:45:42.626Z,1011.6
2018-05-18T01:46:52.080Z,1011.54
2018-05-18T01:48:02.065Z,1011.57
2018-05-18T01:49:12.039Z,1011.6
2018-05-18T01:50:22.010Z,1011.6
2018-05-18T01:51:31.980Z,1011.58
2018-05-18T01:52:42.342Z,1011.67
2018-05-18T01:53:52.304Z,1011.6
2018-05-18T01:55:02.476Z,1011.63
2018-05-18T01:56:12.448Z,1011.62
2018-05-18T01:57:22.429Z,1011.63
2018-05-18T01:58:32.135Z,1011.63
2018-05-18T01:59:42.099Z,1011.67
2018-05-18T02:00:52.077Z,1011.59
2018-05-18T02:02:01.782Z,1011.64
2018-05-18T02:03:11.494Z,1011.61
2018-05-18T02:04:21.204Z,1011.59
2018-05-18T02:05:31.172Z,1011.57
2018-05-18T02:06:41.146Z,1011.58
2018-05-18T02:07:51.112Z,1011.61
2018-05-18T02:09:01.070Z,1011.56
2018-05-18T02:10:11.039Z,1011.61
2018-05-18T02:11:20.592Z,1011.62
2018-05-18T02:12:30.579Z,1011.56
2018-05-18T02:13:40.282Z,1011.59
2018-05-18T02:14:50.018Z,1011.58
2018-05-18T02:15:59.991Z,1011.57
2018-05-18T02:17:09.697Z,1011.62
2018-05-18T02:18:19.659Z,1011.6
2018-05-18T02:19:29.123Z,1011.6
2018-05-18T02:20:38.822Z,1011.59
2018-05-18T02:21:48.014Z,1011.69
2018-05-18T02:22:57.982Z,1011.62
2018-05-18T02:24:07.977Z,1011.64
2018-05-18T02:25:17.994Z,1011.73
2018-05-18T02:26:27.713Z,1011.68
2018-05-18T02:27:37.685Z,1011.7
2018-05-18T02:28:47.639Z,1011.73
2018-05-18T02:29:57.619Z,1011.81
2018-05-18T02:31:07.609Z,1011.79
2018-05-18T02:32:17.595Z,1011.75
2018-05-18T02:33:27.307Z,1011.74
2018-05-18T02:34:37.278Z,1011.72
2018-05-18T02:35:46.990Z,1011.81
2018-05-18T02:36:56.960Z,1011.82
2018-05-18T02:38:06.678Z,1011.81
2018-05-18T02:39:16.403Z,1011.79
2018-05-18T02:40:26.393Z,1011.76
2018-05-18T02:41:36.101Z,1011.77
2018-05-18T02:42:45.808Z,1011.8
2018-05-18T02:43:55.602Z,1011.79
2018-05-18T02:45:05.585Z,1011.82
2018-05-18T02:46:15.558Z,1011.8
2018-05-18T02:47:25.551Z,1011.73
2018-05-18T02:48:35.534Z,1011.74
2018-05-18T02:49:45.368Z,1011.72
2018-05-18T02:50:55.340Z,1011.76
2018-05-18T02:52:05.316Z,1011.75
2018-05-18T02:53:15.311Z,1011.81
2018-05-18T02:54:25.302Z,1011.89
2018-05-18T02:55:35.282Z,1011.76
2018-05-18T02:56:45.265Z,1011.79
2018-05-18T02:57:55.247Z,1011.8
2018-05-18T02:59:05.269Z,1011.83
2018-05-18T03:00:15.274Z,1011.84
2018-05-18T03:01:25.245Z,1011.86
2018-05-18T03:02:34.963Z,1011.86
2018-05-18T03:03:44.928Z,1011.86
2018-05-18T03:04:54.902Z,1011.86
2018-05-18T03:06:04.889Z,1011.85
2018-05-18T03:07:14.858Z,1011.87
2018-05-18T03:08:24.568Z,1011.91
2018-05-18T03:09:34.358Z,1011.88
2018-05-18T03:10:44.073Z,1011.9
2018-05-18T03:11:54.038Z,1011.87
2018-05-18T03:13:03.490Z,1011.89
2018-05-18T03:14:13.447Z,1011.9
2018-05-18T03:15:22.894Z,1011.91
2018-05-18T03:16:32.607Z,1011.91
2018-05-18T03:17:42.325Z,1011.92
2018-05-18T03:18:52.288Z,1011.91
2018-05-18T03:20:02.279Z,1011.94
2018-05-18T03:21:12.008Z,1011.92
2018-05-18T03:22:21.711Z,1012
2018-05-18T03:23:31.174Z,1011.92
2018-05-18T03:24:41.151Z,1011.93
2018-05-18T03:25:50.859Z,1012.01
2018-05-18T03:27:00.838Z,1011.91
2018-05-18T03:28:10.799Z,1011.92
2018-05-18T03:29:20.765Z,1011.94
2018-05-18T03:30:30.734Z,1011.96
2018-05-18T03:31:40.702Z,1012.01
2018-05-18T03:32:50.683Z,1011.93
2018-05-18T03:34:00.664Z,1011.98
2018-05-18T03:35:10.647Z,1012
2018-05-18T03:36:20.608Z,1011.98
2018-05-18T03:37:30.570Z,1012
2018-05-18T03:38:40.279Z,1012.01
2018-05-18T03:39:50.255Z,1012.01
2018-05-18T03:41:00.212Z,1012.13
2018-05-18T03:42:10.188Z,1012.05
2018-05-18T03:43:19.892Z,1012.13
2018-05-18T03:44:29.850Z,1012.1
2018-05-18T03:45:39.819Z,1012.14
2018-05-18T03:46:49.769Z,1012.12
2018-05-18T03:47:59.478Z,1012.15
2018-05-18T03:49:09.445Z,1012.08
2018-05-18T03:50:19.161Z,1012.15
2018-05-18T03:51:29.127Z,1012.12
2018-05-18T03:52:38.915Z,1012.11
2018-05-18T03:53:48.623Z,1012.1
2018-05-18T03:54:58.594Z,1012.22
2018-05-18T03:56:08.561Z,1012.1
2018-05-18T03:57:18.535Z,1012.19
2018-05-18T03:58:28.518Z,1012.09
2018-05-18T03:59:38.482Z,1012.13
2018-05-18T04:00:48.457Z,1012.07
2018-05-18T04:01:58.424Z,1012.09
2018-05-18T04:03:08.397Z,1012.15
2018-05-18T04:04:18.363Z,1012.14
2018-05-18T04:05:28.099Z,1012.14
2018-05-18T04:06:37.811Z,1012.14
2018-05-18T04:07:47.352Z,1012.18
2018-05-18T04:08:57.566Z,1012.16
2018-05-18T04:10:07.537Z,1012.18
2018-05-18T04:11:17.661Z,1012.24
2018-05-18T04:12:27.623Z,1012.16
2018-05-18T04:13:37.691Z,1012.22
2018-05-18T04:14:47.404Z,1012.23
2018-05-18T04:15:57.382Z,1012.19
2018-05-18T04:17:07.091Z,1012.25
2018-05-18T04:18:16.817Z,1012.24
2018-05-18T04:19:26.790Z,1012.24
2018-05-18T04:20:36.759Z,1012.18
2018-05-18T04:21:46.739Z,1012.25
2018-05-18T04:22:56.443Z,1012.23
2018-05-18T04:24:06.152Z,1012.19
2018-05-18T04:25:16.142Z,1012.2
2018-05-18T04:26:25.863Z,1012.23
2018-05-18T04:27:35.914Z,1012.3
2018-05-18T04:28:45.623Z,1012.26
2018-05-18T04:29:55.599Z,1012.21
2018-05-18T04:31:05.781Z,1012.26
2018-05-18T04:32:15.501Z,1012.25
2018-05-18T04:33:25.208Z,1012.24
2018-05-18T04:34:35.173Z,1012.27
2018-05-18T04:35:44.913Z,1012.22
2018-05-18T04:36:54.373Z,1012.26
2018-05-18T04:38:04.357Z,1012.19
2018-05-18T04:39:14.330Z,1012.2
2018-05-18T04:40:24.051Z,1012.25
2018-05-18T04:41:34.030Z,1012.15
2018-05-18T04:42:43.740Z,1012.26
2018-05-18T04:43:53.445Z,1012.22
2018-05-18T04:45:03.395Z,1012.24
2018-05-18T04:46:13.370Z,1012.23
2018-05-18T04:47:23.423Z,1012.29
2018-05-18T04:48:33.398Z,1012.26
2018-05-18T04:49:42.857Z,1012.3
2018-05-18T04:50:52.855Z,1012.33
2018-05-18T04:52:03.209Z,1012.41
2018-05-18T04:53:13.183Z,1012.46
2018-05-18T04:54:23.159Z,1012.39
2018-05-18T04:55:33.143Z,1012.43
2018-05-18T04:56:42.849Z,1012.43
2018-05-18T04:57:52.812Z,1012.41
2018-05-18T04:59:02.520Z,1012.4
2018-05-18T05:00:12.504Z,1012.52
2018-05-18T05:01:22.307Z,1012.44
2018-05-18T05:02:32.292Z,1012.45
2018-05-18T05:03:42.006Z,1012.45
2018-05-18T05:04:51.962Z,1012.44
2018-05-18T05:06:01.702Z,1012.52
2018-05-18T05:07:11.415Z,1012.54
2018-05-18T05:08:21.395Z,1012.61
2018-05-18T05:09:31.366Z,1012.53
2018-05-18T05:10:40.823Z,1012.54
2018-05-18T05:11:50.789Z,1012.65
2018-05-18T05:13:00.516Z,1012.61
2018-05-18T05:14:10.479Z,1012.66
2018-05-18T05:15:20.441Z,1012.58
2018-05-18T05:16:30.426Z,1012.65
2018-05-18T05:17:40.143Z,1012.65
2018-05-18T05:18:50.012Z,1012.64
2018-05-18T05:19:59.718Z,1012.7
2018-05-18T05:21:09.723Z,1012.62
2018-05-18T05:22:19.688Z,1012.61
2018-05-18T05:23:29.690Z,1012.71
2018-05-18T05:24:39.215Z,1012.77
2018-05-18T05:25:49.202Z,1012.68
2018-05-18T05:26:58.387Z,1012.63
2018-05-18T05:28:08.098Z,1012.68
2018-05-18T05:29:18.080Z,1012.74
2018-05-18T05:30:28.135Z,1012.68
2018-05-18T05:31:38.427Z,1012.69
2018-05-18T05:32:48.408Z,1012.68
2018-05-18T05:33:58.128Z,1012.78
2018-05-18T05:35:07.854Z,1012.73
2018-05-18T05:36:17.912Z,1012.79
2018-05-18T05:37:27.649Z,1012.81
2018-05-18T05:38:37.637Z,1012.85
2018-05-18T05:39:47.355Z,1012.83
2018-05-18T05:40:57.333Z,1012.83
2018-05-18T05:42:07.305Z,1012.78
2018-05-18T05:43:17.011Z,1012.79
2018-05-18T05:44:26.739Z,1012.83
2018-05-18T05:45:36.461Z,1012.78
2018-05-18T05:46:46.536Z,1012.83
2018-05-18T05:47:56.509Z,1012.81
2018-05-18T05:49:06.490Z,1012.79
2018-05-18T05:50:16.236Z,1012.75
2018-05-18T05:51:26.201Z,1012.76
2018-05-18T05:52:35.927Z,1012.81
2018-05-18T05:53:46.077Z,1012.9
2018-05-18T05:54:56.071Z,1012.85
2018-05-18T05:56:05.281Z,1012.81
2018-05-18T05:57:15.273Z,1012.79
2018-05-18T05:58:25.024Z,1012.79
2018-05-18T05:59:35.200Z,1012.86
2018-05-18T06:00:45.171Z,1012.8
2018-05-18T06:01:55.160Z,1012.85
2018-05-18T06:03:05.141Z,1012.87
2018-05-18T06:04:15.131Z,1012.77
2018-05-18T06:05:24.913Z,1012.84
2018-05-18T06:06:34.882Z,1012.86
2018-05-18T06:07:44.344Z,1012.93
2018-05-18T06:08:54.062Z,1012.86
2018-05-18T06:10:04.058Z,1012.95
2018-05-18T06:11:13.287Z,1013.03
2018-05-18T06:12:23.010Z,1012.95
2018-05-18T06:13:32.511Z,1012.92
2018-05-18T06:14:42.469Z,1012.94
2018-05-18T06:15:52.466Z,1013.01
2018-05-18T06:17:02.447Z,1013.08
2018-05-18T06:18:12.436Z,1012.95
2018-05-18T06:19:22.144Z,1013.04
2018-05-18T06:20:32.287Z,1012.95
2018-05-18T06:21:42.285Z,1013.02
2018-05-18T06:22:52.318Z,1012.98
2018-05-18T06:24:02.411Z,1012.95
2018-05-18T06:25:12.152Z,1012.97
2018-05-18T06:26:22.206Z,1013
2018-05-18T06:27:32.217Z,1012.96
2018-05-18T06:28:42.123Z,1013.05
2018-05-18T06:29:52.365Z,1013.04
2018-05-18T06:31:02.361Z,1013.06
2018-05-18T06:32:12.368Z,1013.02
2018-05-18T06:33:22.092Z,1013.13
2018-05-18T06:34:31.879Z,1013.08
2018-05-18T06:35:42.129Z,1013.06
2018-05-18T06:36:51.860Z,1013.09
2018-05-18T06:38:01.853Z,1013.06
2018-05-18T06:39:11.835Z,1013.15
2018-05-18T06:40:21.559Z,1013.02
2018-05-18T06:41:31.273Z,1013.07
2018-05-18T06:42:41.271Z,1013.11
2018-05-18T06:43:50.781Z,1013.01
2018-05-18T06:45:00.798Z,1013.06
2018-05-18T06:46:10.855Z,1013.08
2018-05-18T06:47:20.911Z,1013.04
2018-05-18T06:48:30.686Z,1013.07
2018-05-18T06:49:40.677Z,1013.08
2018-05-18T06:50:50.389Z,1013.13
2018-05-18T06:52:00.414Z,1013.12
2018-05-18T06:53:10.644Z,1013.08
2018-05-18T06:54:20.379Z,1013.05
2018-05-18T06:55:30.226Z,1013.12
2018-05-18T06:56:39.977Z,1013.15
2018-05-18T06:57:49.997Z,1013.15
2018-05-18T06:58:59.984Z,1013.1
2018-05-18T07:00:09.442Z,1013.13
2018-05-18T07:01:19.431Z,1013.15
2018-05-18T07:02:29.423Z,1013.12
2018-05-18T07:03:39.421Z,1013.2
2018-05-18T07:04:49.485Z,1013.19
2018-05-18T07:05:59.241Z,1013.19
2018-05-18T07:07:08.989Z,1013.11
2018-05-18T07:08:18.991Z,1013.2
2018-05-18T07:09:29.059Z,1013.2
2018-05-18T07:10:39.175Z,1013.11
2018-05-18T07:11:49.292Z,1013.13
2018-05-18T07:12:59.303Z,1013.13
2018-05-18T07:14:09.319Z,1013.17
2018-05-18T07:15:19.324Z,1013.19
2018-05-18T07:16:29.070Z,1013.15
2018-05-18T07:17:39.605Z,1013.14
2018-05-18T07:18:49.372Z,1013.18
2018-05-18T07:19:59.362Z,1013.16
2018-05-18T07:21:09.662Z,1013.13
2018-05-18T07:22:19.137Z,1013.15
2018-05-18T07:23:29.142Z,1013.23
2018-05-18T07:24:38.913Z,1013.21
2018-05-18T07:25:48.913Z,1013.13
2018-05-18T07:26:58.659Z,1013.17
2018-05-18T07:28:08.384Z,1013.18
2018-05-18T07:29:18.130Z,1013.12
2018-05-18T07:30:27.857Z,1013.15
2018-05-18T07:31:37.846Z,1013.16
2018-05-18T07:32:47.871Z,1013.11
2018-05-18T07:33:57.831Z,1013.12
2018-05-18T07:35:07.556Z,1013.08
2018-05-18T07:36:17.366Z,1013.04
2018-05-18T07:37:27.635Z,1013.08
2018-05-18T07:38:37.619Z,1013.13
2018-05-18T07:39:47.681Z,1013.12
2018-05-18T07:40:57.663Z,1013.13
2018-05-18T07:42:08.020Z,1013.13
2018-05-18T07:43:18.062Z,1013.05
2018-05-18T07:44:28.064Z,1013.06
2018-05-18T07:45:38.154Z,1013.07
2018-05-18T07:46:48.177Z,1013.13
2018-05-18T07:47:57.679Z,1013.16
2018-05-18T07:49:07.529Z,1013.17
2018-05-18T07:50:17.527Z,1013.16
2018-05-18T07:51:27.282Z,1013.13
2018-05-18T07:52:37.296Z,1013.13
2018-05-18T07:53:47.294Z,1013.15
2018-05-18T07:54:57.345Z,1013.14
2018-05-18T07:56:07.092Z,1013.13
2018-05-18T07:57:16.846Z,1013.16
2018-05-18T07:58:26.084Z,1013.21
2018-05-18T07:59:36.254Z,1013.19
2018-05-18T08:00:46.136Z,1013.21
2018-05-18T08:01:56.137Z,1013.21
2018-05-18T08:03:06.146Z,1013.2
2018-05-18T08:04:16.196Z,1013.15
2018-05-18T08:05:26.231Z,1013.17
2018-05-18T08:06:35.979Z,1013.21
2018-05-18T08:07:45.765Z,1013.28
2018-05-18T08:08:56.347Z,1013.27
2018-05-18T08:10:06.352Z,1013.16
2018-05-18T08:11:15.918Z,1013.31
2018-05-18T08:12:25.926Z,1013.22
2018-05-18T08:13:36.039Z,1013.24
2018-05-18T08:14:45.777Z,1013.26
2018-05-18T08:15:55.765Z,1013.33
2018-05-18T08:17:05.879Z,1013.29
2018-05-18T08:18:16.109Z,1013.26
2018-05-18T08:19:25.861Z,1013.43
2018-05-18T08:20:35.613Z,1013.38
2018-05-18T08:21:45.351Z,1013.39
2018-05-18T08:22:55.383Z,1013.34
2018-05-18T08:24:05.381Z,1013.39
2018-05-18T08:25:15.380Z,1013.37
2018-05-18T08:26:25.154Z,1013.42
2018-05-18T08:27:34.965Z,1013.38
2018-05-18T08:28:45.066Z,1013.38
2018-05-18T08:29:54.835Z,1013.41
2018-05-18T08:31:04.863Z,1013.41
2018-05-18T08:32:14.857Z,1013.47
2018-05-18T08:33:24.891Z,1013.41
2018-05-18T08:34:34.889Z,1013.54
2018-05-18T08:35:45.211Z,1013.46
2018-05-18T08:36:54.966Z,1013.45
2018-05-18T08:38:05.002Z,1013.45
2018-05-18T08:39:14.777Z,1013.42
2018-05-18T08:40:24.786Z,1013.6
2018-05-18T08:41:34.777Z,1013.54
2018-05-18T08:42:44.506Z,1013.53
2018-05-18T08:43:54.575Z,1013.54
2018-05-18T08:45:04.604Z,1013.61
2018-05-18T08:46:14.363Z,1013.58
2018-05-18T08:47:24.103Z,1013.69
2018-05-18T08:48:34.140Z,1013.67
2018-05-18T08:49:43.887Z,1013.6
2018-05-18T08:50:53.904Z,1013.72
2018-05-18T08:52:03.651Z,1013.71
2018-05-18T08:53:13.670Z,1013.63
2018-05-18T08:54:23.687Z,1013.66
2018-05-18T08:55:33.724Z,1013.64
2018-05-18T08:56:44.210Z,1013.68
2018-05-18T08:57:53.957Z,1013.76
2018-05-18T08:59:03.439Z,1013.64
2018-05-18T09:00:13.181Z,1013.62
2018-05-18T09:01:22.926Z,1013.57
2018-05-18T09:02:33.156Z,1013.7
2018-05-18T09:03:43.164Z,1013.78
2018-05-18T09:04:52.946Z,1013.71
2018-05-18T09:06:02.747Z,1013.68
2018-05-18T09:07:12.845Z,1013.75
2018-05-18T09:08:22.867Z,1013.65
2018-05-18T09:09:32.870Z,1013.8
2018-05-18T09:10:43.087Z,1013.76
2018-05-18T09:11:53.149Z,1013.73
2018-05-18T09:13:02.907Z,1013.71
2018-05-18T09:14:12.895Z,1013.81
2018-05-18T09:15:22.913Z,1013.76
2018-05-18T09:16:32.435Z,1013.81
2018-05-18T09:17:41.966Z,1013.81
2018-05-18T09:18:51.704Z,1013.79
2018-05-18T09:20:01.766Z,1013.78
2018-05-18T09:21:11.823Z,1013.88
2018-05-18T09:22:21.886Z,1013.81
2018-05-18T09:23:31.617Z,1013.69
2018-05-18T09:24:41.622Z,1013.84
2018-05-18T09:25:51.635Z,1013.85
2018-05-18T09:27:01.124Z,1013.92
2018-05-18T09:28:11.115Z,1013.91
2018-05-18T09:29:21.104Z,1013.89
2018-05-18T09:30:30.823Z,1013.99
2018-05-18T09:31:40.808Z,1013.92
2018-05-18T09:32:50.842Z,1013.8
2018-05-18T09:34:01.007Z,1013.97
2018-05-18T09:35:11.280Z,1014.06
2018-05-18T09:36:21.272Z,1014.05
2018-05-18T09:37:30.994Z,1014.01
2018-05-18T09:38:40.974Z,1013.96
2018-05-18T09:39:51.094Z,1013.93
2018-05-18T09:41:01.340Z,1013.95
2018-05-18T09:42:11.360Z,1013.97
2018-05-18T09:43:21.084Z,1013.97
2018-05-18T09:44:30.831Z,1013.98
2018-05-18T09:45:40.564Z,1014.06
2018-05-18T09:46:50.551Z,1013.93
2018-05-18T09:48:00.279Z,1013.93
2018-05-18T09:49:10.264Z,1013.96
2018-05-18T09:50:19.991Z,1014.09
2018-05-18T09:51:30.000Z,1014.04
2018-05-18T09:52:39.742Z,1014.06
2018-05-18T09:53:49.746Z,1013.99
2018-05-18T09:54:59.882Z,1014
2018-05-18T09:56:10.950Z,1014.07
2018-05-18T09:57:21.012Z,1014
2018-05-18T09:58:31.061Z,1014.03
2018-05-18T09:59:41.361Z,1014.07
2018-05-18T10:00:51.344Z,1014.14
2018-05-18T10:02:01.413Z,1014.08
2018-05-18T10:03:11.434Z,1014.11
2018-05-18T10:04:21.413Z,1014.12
2018-05-18T10:05:30.893Z,1014.13
2018-05-18T10:06:40.374Z,1014.15
2018-05-18T10:07:50.390Z,1014.16
2018-05-18T10:09:00.420Z,1014.05
2018-05-18T10:10:10.399Z,1014.08
2018-05-18T10:11:20.394Z,1014.03
2018-05-18T10:12:30.424Z,1014.05
2018-05-18T10:13:40.414Z,1014.08
2018-05-18T10:14:50.421Z,1014.02
2018-05-18T10:16:00.413Z,1014.06
2018-05-18T10:17:10.414Z,1014.1
2018-05-18T10:18:20.411Z,1014.07
2018-05-18T10:19:30.513Z,1014.02
2018-05-18T10:20:40.245Z,1014.04
2018-05-18T10:21:49.477Z,1014.08
2018-05-18T10:22:59.196Z,1014.07
2018-05-18T10:24:09.176Z,1014.06
2018-05-18T10:25:18.899Z,1014.03
2018-05-18T10:26:28.646Z,1014.05
2018-05-18T10:27:38.636Z,1014.13
2018-05-18T10:28:48.109Z,1014.14
2018-05-18T10:29:58.100Z,1014.13
2018-05-18T10:31:07.837Z,1014.27
2018-05-18T10:32:17.873Z,1014.14
2018-05-18T10:33:27.592Z,1014.19
2018-05-18T10:34:37.570Z,1014.21
2018-05-18T10:35:47.582Z,1014.26
2018-05-18T10:36:57.587Z,1014.16
2018-05-18T10:38:07.588Z,1014.14
2018-05-18T10:39:17.580Z,1014.14
2018-05-18T10:40:27.574Z,1014.13
2018-05-18T10:41:37.567Z,1014.16
2018-05-18T10:42:47.334Z,1014.2
2018-05-18T10:43:57.336Z,1014.23
2018-05-18T10:45:07.057Z,1014.19
2018-05-18T10:46:17.181Z,1014.17
2018-05-18T10:47:27.179Z,1014.17
2018-05-18T10:48:37.151Z,1014.23
2018-05-18T10:49:46.627Z,1014.23
2018-05-18T10:50:56.398Z,1014.18
2018-05-18T10:52:06.146Z,1014.28
2018-05-18T10:53:16.168Z,1014.34
2018-05-18T10:54:25.903Z,1014.31
2018-05-18T10:55:35.895Z,1014.32
2018-05-18T10:56:45.631Z,1014.24
2018-05-18T10:57:55.859Z,1014.26
2018-05-18T10:59:05.937Z,1014.32
2018-05-18T11:00:15.727Z,1014.3
2018-05-18T11:01:25.719Z,1014.39
2018-05-18T11:02:35.748Z,1014.4
2018-05-18T11:03:45.525Z,1014.36
2018-05-18T11:04:55.259Z,1014.35
2018-05-18T11:06:05.283Z,1014.38
2018-05-18T11:07:15.276Z,1014.26
2018-05-18T11:08:25.012Z,1014.32
2018-05-18T11:09:34.743Z,1014.36
2018-05-18T11:10:44.723Z,1014.38
2018-05-18T11:11:54.789Z,1014.35
2018-05-18T11:13:04.810Z,1014.36
2018-05-18T11:14:14.893Z,1014.38
2018-05-18T11:15:24.626Z,1014.33
2018-05-18T11:16:34.362Z,1014.29
2018-05-18T11:17:44.367Z,1014.3
2018-05-18T11:18:54.423Z,1014.3
2018-05-18T11:20:04.447Z,1014.42
2018-05-18T11:21:14.798Z,1014.28
2018-05-18T11:22:24.518Z,1014.31
2018-05-18T11:23:34.507Z,1014.27
2018-05-18T11:24:44.242Z,1014.23
2018-05-18T11:25:53.982Z,1014.4
2018-05-18T11:27:03.985Z,1014.3
2018-05-18T11:28:13.994Z,1014.31
2018-05-18T11:29:24.006Z,1014.31
2018-05-18T11:30:34.051Z,1014.33
2018-05-18T11:31:44.107Z,1014.3
2018-05-18T11:32:54.147Z,1014.4
2018-05-18T11:34:04.292Z,1014.34
2018-05-18T11:35:14.136Z,1014.34
2018-05-18T11:36:23.910Z,1014.35
2018-05-18T11:37:33.649Z,1014.36
2018-05-18T11:38:43.398Z,1014.34
2018-05-18T11:39:53.399Z,1014.32
2018-05-18T11:41:03.396Z,1014.27
2018-05-18T11:42:13.130Z,1014.3
2018-05-18T11:43:23.442Z,1014.26
2018-05-18T11:44:33.462Z,1014.33
2018-05-18T11:45:43.464Z,1014.2
2018-05-18T11:46:53.478Z,1014.24
2018-05-18T11:48:03.496Z,1014.19
2018-05-18T11:49:13.915Z,1014.25
2018-05-18T11:50:23.082Z,1014.14
2018-05-18T11:51:33.067Z,1014.26
2018-05-18T11:52:42.803Z,1014.26
2018-05-18T11:53:52.809Z,1014.25
2018-05-18T11:55:02.839Z,1014.2
2018-05-18T11:56:12.574Z,1014.3
2018-05-18T11:57:22.374Z,1014.31
2018-05-18T11:58:32.377Z,1014.28
2018-05-18T11:59:42.370Z,1014.31
2018-05-18T12:00:52.407Z,1014.31
2018-05-18T12:02:02.392Z,1014.3
2018-05-18T12:03:12.117Z,1014.35
2018-05-18T12:04:22.106Z,1014.38
2018-05-18T12:05:31.835Z,1014.38
2018-05-18T12:06:41.841Z,1014.42
2018-05-18T12:07:51.564Z,1014.4
2018-05-18T12:09:01.570Z,1014.37
2018-05-18T12:10:11.567Z,1014.42
2018-05-18T12:11:21.547Z,1014.48
2018-05-18T12:12:31.330Z,1014.43
2018-05-18T12:13:41.075Z,1014.46
2018-05-18T12:14:51.085Z,1014.46
2018-05-18T12:16:01.061Z,1014.44
2018-05-18T12:17:10.785Z,1014.39
2018-05-18T12:18:20.286Z,1014.4
2018-05-18T12:19:30.288Z,1014.39
2018-05-18T12:20:40.279Z,1014.44
2018-05-18T12:21:50.033Z,1014.43
2018-05-18T12:23:00.025Z,1014.51
2018-05-18T12:24:10.104Z,1014.51
2018-05-18T12:25:20.091Z,1014.48
2018-05-18T12:26:30.061Z,1014.47
2018-05-18T12:27:40.075Z,1014.45
2018-05-18T12:28:50.067Z,1014.46
2018-05-18T12:29:59.821Z,1014.46
2018-05-18T12:31:09.542Z,1014.39
2018-05-18T12:32:19.534Z,1014.36
2018-05-18T12:33:29.504Z,1014.4
2018-05-18T12:34:39.492Z,1014.38
2018-05-18T12:35:49.502Z,1014.39
2018-05-18T12:36:59.514Z,1014.4
2018-05-18T12:38:09.531Z,1014.42
2018-05-18T12:39:19.416Z,1014.38
2018-05-18T12:40:29.394Z,1014.39
2018-05-18T12:41:39.382Z,1014.34
2018-05-18T12:42:49.372Z,1014.34
2018-05-18T12:43:59.378Z,1014.44
2018-05-18T12:45:09.108Z,1014.47
2018-05-18T12:46:19.102Z,1014.45
2018-05-18T12:47:29.092Z,1014.42
2018-05-18T12:48:38.844Z,1014.45
2018-05-18T12:49:48.639Z,1014.42
2018-05-18T12:50:58.620Z,1014.4
2018-05-18T12:52:08.638Z,1014.44
2018-05-18T12:53:18.349Z,1014.38
2018-05-18T12:54:28.326Z,1014.46
2018-05-18T12:55:38.312Z,1014.44
2018-05-18T12:56:48.040Z,1014.38
2018-05-18T12:57:57.772Z,1014.4
2018-05-18T12:59:07.754Z,1014.4
2018-05-18T13:00:17.467Z,1014.44
2018-05-18T13:01:27.187Z,1014.44
2018-05-18T13:02:37.172Z,1014.44
2018-05-18T13:03:46.640Z,1014.4
2018-05-18T13:04:56.363Z,1014.43
2018-05-18T13:06:06.084Z,1014.38
2018-05-18T13:07:15.906Z,1014.39
2018-05-18T13:08:25.898Z,1014.35
2018-05-18T13:09:35.872Z,1014.33
2018-05-18T13:10:45.602Z,1014.38
2018-05-18T13:11:55.592Z,1014.45
2018-05-18T13:13:05.574Z,1014.39
2018-05-18T13:14:15.315Z,1014.36
2018-05-18T13:15:25.040Z,1014.48
2018-05-18T13:16:35.019Z,1014.52
2018-05-18T13:17:44.749Z,1014.41
2018-05-18T13:18:54.745Z,1014.42
2018-05-18T13:20:04.715Z,1014.45
2018-05-18T13:21:14.707Z,1014.48
2018-05-18T13:22:24.446Z,1014.51
2018-05-18T13:23:34.430Z,1014.45
2018-05-18T13:24:44.431Z,1014.45
2018-05-18T13:25:54.403Z,1014.45
2018-05-18T13:27:04.388Z,1014.49
2018-05-18T13:28:13.849Z,1014.47
2018-05-18T13:29:23.579Z,1014.43
2018-05-18T13:30:33.651Z,1014.46
2018-05-18T13:31:44.003Z,1014.48
2018-05-18T13:32:53.978Z,1014.5
2018-05-18T13:34:03.951Z,1014.47
2018-05-18T13:35:13.949Z,1014.48
2018-05-18T13:36:23.942Z,1014.45
2018-05-18T13:37:33.665Z,1014.46
2018-05-18T13:38:43.780Z,1014.45
2018-05-18T13:39:54.142Z,1014.39
2018-05-18T13:41:04.160Z,1014.37
2018-05-18T13:42:13.980Z,1014.36
2018-05-18T13:43:23.993Z,1014.39
2018-05-18T13:44:34.047Z,1014.39
2018-05-18T13:45:43.798Z,1014.37
2018-05-18T13:46:53.799Z,1014.37
2018-05-18T13:48:03.783Z,1014.36
2018-05-18T13:49:13.782Z,1014.38
2018-05-18T13:50:23.256Z,1014.38
2018-05-18T13:51:33.254Z,1014.37
2018-05-18T13:52:43.354Z,1014.37
2018-05-18T13:53:52.824Z,1014.39
2018-05-18T13:55:02.547Z,1014.39
2018-05-18T13:56:12.535Z,1014.41
2018-05-18T13:57:22.520Z,1014.4
2018-05-18T13:58:32.511Z,1014.38
2018-05-18T13:59:42.504Z,1014.37
2018-05-18T14:00:52.513Z,1014.36
2018-05-18T14:02:02.506Z,1014.39
2018-05-18T14:03:12.493Z,1014.39
2018-05-18T14:04:21.957Z,1014.38
2018-05-18T14:05:31.664Z,1014.41
2018-05-18T14:06:41.127Z,1014.44
2018-05-18T14:07:51.113Z,1014.39
2018-05-18T14:09:00.830Z,1014.44